Hovedside
METAR-TAF:

METAR-TAF

Lufthavner :

Alice Springs, Australia

breddegrad: 23-48S, lengdegrad: 133-53E, høyde over havet: 545 m

Gjeldene værobservasjon

Denne rapporten ble laget for 26 minutter siden, klokken 01:30 UTC
Vind 8 kt fra Øst-sørøst
Temperatur 30°C
Luftfuktighet 13%
Trykk 1014 hPa
Sikt 10 km eller mer

METAR: YBAS 290130Z AUTO 11008KT 9999 // NCD 30/M01 Q1014 RF00.0/000.0

Tid: 11:26 (01:56 UTC)

Varsel

Denne rapporten ble laget for 2 timer og 48 minutter siden, klokken 23:08 UTC
Varsel gyldig fra 29. klokken 00 UTC til 01. klokken 00 UTC
Vind 12 kt fra Øst
Sikt 10 km eller mer
ingen skyer under 1500 m og ingen bygeskyer
Fra 29. klokken 0400 UTC
Vind 10 kt fra Øst-sørøst
Sikt 10 km eller mer
ingen skyer under 1500 m og ingen bygeskyer

TAF: YBAS 282308Z 2900/0100 08012KT CAVOK FM290400 12010KT CAVOK

Værobservasjoner og værvarsel for over 4000 flyplasser (METAR- og TAF-rapporter).

Tilgjengelige stasjoner er representert av de røde og gule prikkene på kartet.

Hold musepekeren over prikken for å se navnet på stasjonen.

Klikk så for å se værobservasjoner og -varsler.

For å forandre kartet kan du klikke på den grønne knappen med svart kryss for å zoome inn, på den grønne knappen med strek for å zoome ut, eller på de grønne pilene for å se tilstøtende kart.


METAR-TAF: